»·PEaware :: SWA298 KLAS-KSAN

SWA298 :: KLAS-KSAN

FLIGHT INFORMATION

Flight Status: Arrived
Operator:
Southwest Airlines
More flights by this operator :: More flights under this callsign
Pilot: Dave P. (45)
Aircraft: BOEING 737-700
(B737)
More flights by this aircraft type
Origin: KLAS McCarran Intl
United States
Destination: KSAN San Diego Intl-Lindbergh
United States
More flights between these airports :: More routes between these airports
Route: +BOACH8 LVELL LUCKI1
File this flight plan on PilotEdge
Remarks: PBN / A1B1C1D1S1S2 DOF / 181027 REG / N737PM OPR / SWA PER / C RMK / TCAS SIMBRIEF
Altitude:
(Current/Filed)
28,000ft
Speed:
(Current/Filed)
448kts
Departed: 26-Oct-18 06:02 PM
Arrived: 26-Oct-18 06:45 PM
Distance/Time
Traveled:
225nm/0:43
Distance/Time
To Go:
Arrived

Flight Plot

Page will automatically refresh every two minutes.

Flight plan parsing failed; only flown route is shown


Map Options




Map Legend


Flown Route
Filed Route
Departure Airport
Arrival Airport
Navaid (VOR, NDB)
Fix

Horizontal Profiles

Position Reports

Time Latitude Longitude Heading Altitude Ground
Speed
26-Oct-18 17:28 36.079817 -115.147028 63 2189ft 0kts
26-Oct-18 17:29 36.079817 -115.147028 63 2189ft 0kts
26-Oct-18 17:30 36.079817 -115.147028 63 2189ft 0kts
26-Oct-18 17:31 36.079817 -115.147028 63 2189ft 0kts
26-Oct-18 17:32 36.079817 -115.147028 63 2189ft 0kts
26-Oct-18 17:33 36.079817 -115.147028 63 2189ft 0kts
26-Oct-18 17:34 36.079817 -115.147028 63 2189ft 0kts
26-Oct-18 17:35 36.079817 -115.147028 63 2189ft 0kts
26-Oct-18 17:36 36.079817 -115.147028 63 2189ft 0kts
26-Oct-18 17:37 36.079817 -115.147028 63 2189ft 0kts
26-Oct-18 17:38 36.079817 -115.147028 63 2189ft 0kts
26-Oct-18 17:39 36.079817 -115.147028 63 2189ft 0kts
26-Oct-18 17:40 36.079817 -115.147028 63 2189ft 0kts
26-Oct-18 17:41 36.079817 -115.147028 63 2189ft 0kts
26-Oct-18 17:42 36.079817 -115.147028 63 2189ft 0kts
26-Oct-18 17:43 36.079817 -115.147028 63 2189ft 0kts
26-Oct-18 17:44 36.079817 -115.147028 63 2189ft 0kts
26-Oct-18 17:45 36.079817 -115.147028 63 2189ft 0kts
26-Oct-18 17:46 36.079817 -115.147028 63 2189ft 0kts
26-Oct-18 17:47 36.079817 -115.147028 63 2189ft 0kts
26-Oct-18 17:48 36.079817 -115.147028 63 2189ft 0kts
26-Oct-18 17:49 36.079817 -115.147028 63 2189ft 0kts
26-Oct-18 17:50 36.079817 -115.147028 63 2189ft 0kts
26-Oct-18 17:51 36.079817 -115.147028 63 2189ft 0kts
26-Oct-18 17:52 36.079817 -115.147028 63 2189ft 0kts
26-Oct-18 17:53 36.079817 -115.147028 63 2189ft 0kts
26-Oct-18 17:54 36.079817 -115.147028 63 2189ft 0kts
26-Oct-18 17:55 36.079741 -115.147213 66 2189ft 2kts
26-Oct-18 17:56 36.079857 -115.147915 132 2189ft 0kts
26-Oct-18 17:57 36.079857 -115.147915 132 2189ft 0kts
26-Oct-18 17:58 36.079280 -115.147754 163 2189ft 0kts
26-Oct-18 17:59 36.079051 -115.147677 166 2189ft 8kts
26-Oct-18 18:00 36.078239 -115.142348 90 2189ft 22kts
26-Oct-18 18:01 36.078241 -115.134408 89 2189ft 25kts
26-Oct-18 18:02 36.078247 -115.125508 89 2189ft 22kts
26-Oct-18 18:03 36.076586 -115.121313 181 2189ft 9kts
26-Oct-18 18:04 36.076333 -115.138373 270 2189ft 141kts
26-Oct-18 18:05 36.076313 -115.194513 269 4236ft 174kts
26-Oct-18 18:06 36.060232 -115.263419 214 5680ft 265kts
26-Oct-18 18:07 35.985913 -115.294507 200 7018ft 290kts
26-Oct-18 18:08 35.905311 -115.309734 184 9655ft 299kts
26-Oct-18 18:09 35.816190 -115.311256 175 11971ft 358kts
26-Oct-18 18:10 35.712198 -115.298594 175 14734ft 386kts
26-Oct-18 18:11 35.602325 -115.297332 184 17679ft 405kts
26-Oct-18 18:12 35.487380 -115.302229 183 19133ft 416kts
26-Oct-18 18:13 35.371583 -115.306802 183 19563ft 421kts
26-Oct-18 18:14 35.252808 -115.311476 183 22138ft 434kts
26-Oct-18 18:15 35.129989 -115.316304 183 24279ft 449kts
26-Oct-18 18:16 35.002736 -115.321309 183 26131ft 463kts
26-Oct-18 18:17 34.894198 -115.325546 183 27572ft 472kts
26-Oct-18 18:18 34.742647 -115.346952 199 28093ft 467kts
26-Oct-18 18:19 34.640992 -115.391657 202 28103ft 466kts
26-Oct-18 18:20 34.498468 -115.454475 201 28115ft 466kts
26-Oct-18 18:21 34.396730 -115.498750 201 28123ft 466kts
26-Oct-18 18:22 34.279518 -115.563057 214 28133ft 462kts
26-Oct-18 18:23 34.166063 -115.636581 203 28108ft 465kts
26-Oct-18 18:24 34.045391 -115.692834 202 28096ft 464kts
26-Oct-18 18:25 33.924961 -115.749411 202 28077ft 464kts
26-Oct-18 18:26 33.805448 -115.807949 203 28048ft 464kts
26-Oct-18 18:27 33.685057 -115.865174 202 27654ft 458kts
26-Oct-18 18:28 33.568778 -115.919422 202 25165ft 441kts
26-Oct-18 18:29 33.479472 -116.006815 235 24072ft 398kts
26-Oct-18 18:30 33.415398 -116.116405 236 21263ft 407kts
26-Oct-18 18:31 33.351009 -116.225111 230 19397ft 396kts
26-Oct-18 18:32 33.259231 -116.296840 206 17611ft 395kts
26-Oct-18 18:33 33.161386 -116.353398 206 15855ft 386kts
26-Oct-18 18:34 33.066344 -116.408739 206 14162ft 372kts
26-Oct-18 18:35 32.980552 -116.468096 219 12648ft 343kts
26-Oct-18 18:36 32.909864 -116.540641 220 11044ft 324kts
26-Oct-18 18:37 32.843480 -116.607633 220 9693ft 302kts
26-Oct-18 18:38 32.781515 -116.670767 225 8325ft 285kts
26-Oct-18 18:39 32.739805 -116.748544 241 7120ft 264kts
26-Oct-18 18:40 32.707031 -116.819678 245 5971ft 238kts
26-Oct-18 18:41 32.685501 -116.889415 251 4978ft 212kts
26-Oct-18 18:42 32.676137 -116.955509 285 3794ft 202kts
26-Oct-18 18:43 32.692196 -117.019214 287 3285ft 204kts
26-Oct-18 18:44 32.707419 -117.081845 286 2026ft 186kts
26-Oct-18 18:45 32.720091 -117.134090 286 977ft 144kts
26-Oct-18 18:46 32.730527 -117.176971 286 132ft 130kts
26-Oct-18 18:47 32.735085 -117.198309 229 23ft 6kts
26-Oct-18 18:48 32.734881 -117.198393 183 23ft 5kts
26-Oct-18 18:49 32.733455 -117.194343 160 23ft 7kts
26-Oct-18 18:50 32.731968 -117.195546 248 23ft 6kts
26-Oct-18 18:51 32.731858 -117.195886 248 23ft 0kts
26-Oct-18 18:52 32.731858 -117.195886 248 23ft 0kts
26-Oct-18 18:53 32.731858 -117.195886 248 23ft 0kts
26-Oct-18 18:54 32.731858 -117.195886 248 23ft 0kts
26-Oct-18 18:55 32.731858 -117.195886 248 23ft 0kts
26-Oct-18 18:56 32.731858 -117.195886 248 23ft 0kts
26-Oct-18 18:57 32.731858 -117.195886 248 23ft 0kts
26-Oct-18 18:58 32.731858 -117.195886 248 23ft 0kts
26-Oct-18 18:59 32.731858 -117.195886 248 23ft 0kts
26-Oct-18 19:00 32.731858 -117.195886 248 23ft 0kts
26-Oct-18 19:01 32.731858 -117.195886 248 23ft 0kts

Navigation Log

Ident Type
Flight plan parsing failed, navigation log unavailable